Time;durP1;ratioP1;P1;durP2;ratioP2;P2;SDS_P1;SDS_P2;PMS_P1;PMS_P2;Temp;Humidity;BMP_temperature;BMP_pressure;BME280_temperature;BME280_humidity;BME280_pressure;Samples;Min_cycle;Max_cycle;Signal;HPM_P1;HPM_P2
2022/01/17 00:00:05;;;;;;;3.03;1.35;;;;;;;-5.45;67.49;98237.97;4861241;29;20044;-78
2022/01/17 00:02:33;;;;;;;8.32;1.35;;;;;;;-5.82;67.55;98153.22;4904359;29;20092;-78
2022/01/17 00:04:59;;;;;;;3.88;1.23;;;;;;;-5.12;67.66;98255.81;4893069;29;20390;-78
2022/01/17 00:07:29;;;;;;;2.55;1.08;;;;;;;-5.22;67.35;98242.00;4907235;29;20037;-78
2022/01/17 00:10:05;;;;;;;3.90;1.08;;;;;;;-5.23;67.73;98232.66;4892388;29;20057;-79
2022/01/17 00:12:34;;;;;;;5.05;1.10;;;;;;;-5.19;68.03;98239.56;4913671;29;20087;-77
2022/01/17 00:15:00;;;;;;;3.33;1.25;;;;;;;-5.15;67.62;98247.28;4896204;29;20037;-76
2022/01/17 00:17:37;;;;;;;4.63;1.85;;;;;;;-5.22;67.71;98216.63;4895635;29;20071;-77
2022/01/17 00:20:17;;;;;;;4.30;1.30;;;;;;;-5.46;67.97;98175.41;4875184;29;20091;-76
2022/01/17 00:22:44;;;;;;;1.50;0.93;;;;;;;-5.23;67.75;98205.63;4891450;29;20049;-77
2022/01/17 00:25:10;;;;;;;5.40;1.30;;;;;;;-5.18;67.89;98193.91;4907597;29;20052;-80
2022/01/17 00:27:38;;;;;;;4.90;1.13;;;;;;;-5.12;67.95;98221.16;4904178;29;20044;-77
2022/01/17 00:30:04;;;;;;;1.90;1.00;;;;;;;-5.29;67.83;98180.09;4892613;29;20123;-79
2022/01/17 00:32:31;;;;;;;8.00;1.20;;;;;;;-5.21;67.74;98183.72;4875421;29;20100;-78
2022/01/17 00:34:57;;;;;;;3.92;1.17;;;;;;;-5.13;68.20;98173.78;4893466;29;20449;-78
2022/01/17 00:37:23;;;;;;;5.80;1.30;;;;;;;-5.05;67.83;98184.13;4892024;29;20044;-78
2022/01/17 00:39:49;;;;;;;5.57;1.02;;;;;;;-5.16;68.54;98164.38;4900123;29;20040;-80
2022/01/17 00:42:15;;;;;;;5.40;1.58;;;;;;;-5.10;68.10;98173.00;4894383;29;20131;-78
2022/01/17 00:44:41;;;;;;;4.72;1.30;;;;;;;-5.01;68.21;98185.94;4894552;29;20059;-78
2022/01/17 00:47:07;;;;;;;4.45;1.00;;;;;;;-5.00;68.61;98163.13;4906295;29;20085;-77
2022/01/17 00:49:33;;;;;;;2.22;1.00;;;;;;;-4.95;68.50;98155.63;4906300;29;20037;-75
2022/01/17 00:51:59;;;;;;;4.93;1.10;;;;;;;-5.03;68.30;98130.06;4900574;29;20044;-80
2022/01/17 00:54:25;;;;;;;4.68;1.13;;;;;;;-5.07;68.27;98105.41;4877603;29;20044;-79
2022/01/17 00:56:51;;;;;;;3.45;1.08;;;;;;;-4.89;68.56;98127.03;4897475;29;20036;-76
2022/01/17 00:59:16;;;;;;;4.00;1.20;;;;;;;-4.80;68.17;98112.03;4930516;28;21302;-79
2022/01/17 01:01:42;;;;;;;4.28;1.08;;;;;;;-4.64;68.76;98125.97;4901468;29;20067;-77
2022/01/17 01:04:08;;;;;;;2.00;1.00;;;;;;;-4.55;68.07;98111.00;4878655;29;20048;-75
2022/01/17 01:06:36;;;;;;;2.70;1.00;;;;;;;-4.71;68.55;98051.34;4881126;29;20059;-76
2022/01/17 01:09:03;;;;;;;2.30;1.05;;;;;;;-4.51;68.32;98071.28;4847847;29;20440;-78
2022/01/17 01:11:28;;;;;;;2.85;1.50;;;;;;;-4.31;68.34;98088.66;4887272;29;20112;-76
2022/01/17 01:13:54;;;;;;;4.07;1.00;;;;;;;-4.38;67.81;98070.72;4876410;29;20048;-77
2022/01/17 01:29:20;;;;;;;3.33;1.23;;;;;;;-4.11;68.30;98051.84;4879076;29;20476;-77
2022/01/17 01:31:57;;;;;;;5.05;1.05;;;;;;;-4.24;67.92;98032.94;4877836;29;20060;-76
2022/01/17 01:34:32;;;;;;;1.77;0.90;;;;;;;-4.19;67.59;98027.13;4859958;29;20526;-78
2022/01/17 01:36:59;;;;;;;6.00;1.50;;;;;;;-4.16;68.06;98030.56;4859008;29;20079;-76
2022/01/17 01:39:25;;;;;;;2.97;1.05;;;;;;;-4.07;67.85;98029.91;4850682;29;20198;-77
2022/01/17 01:41:51;;;;;;;2.30;1.10;;;;;;;-4.06;67.98;98026.53;4874487;29;20473;-78
2022/01/17 01:44:22;;;;;;;2.10;1.10;;;;;;;-4.14;67.77;98012.84;4873017;29;20045;-78
2022/01/17 01:46:49;;;;;;;3.08;1.35;;;;;;;-4.14;67.95;98000.13;4856970;29;20049;-79
2022/01/17 01:49:17;;;;;;;2.70;1.20;;;;;;;-4.05;67.30;98035.03;4874093;29;20060;-79
2022/01/17 01:51:44;;;;;;;6.05;1.27;;;;;;;-4.14;67.76;98007.75;4873407;29;20053;-75
2022/01/17 01:54:11;;;;;;;3.00;1.25;;;;;;;-4.13;67.51;98002.69;4875742;29;20073;-77
2022/01/17 01:56:39;;;;;;;1.88;1.20;;;;;;;-4.17;67.90;97997.53;4873391;29;20059;-77
2022/01/17 01:59:06;;;;;;;5.20;1.60;;;;;;;-4.17;67.48;98002.59;4872837;29;20057;-80
2022/01/17 02:01:32;;;;;;;4.45;1.25;;;;;;;-4.14;67.26;97998.44;4867468;29;20095;-78
2022/01/17 02:03:58;;;;;;;4.28;1.90;;;;;;;-4.10;67.31;98007.84;4907468;29;20440;-77
2022/01/17 02:06:24;;;;;;;3.03;1.20;;;;;;;-4.14;67.11;98008.59;4897545;29;21019;-78
2022/01/17 02:08:50;;;;;;;4.85;1.13;;;;;;;-4.23;67.41;97988.09;4891681;29;20048;-74
2022/01/17 02:11:17;;;;;;;2.38;1.00;;;;;;;-4.10;67.43;97986.66;4892029;29;20057;-78
2022/01/17 02:13:43;;;;;;;2.50;0.98;;;;;;;-4.05;67.38;97990.13;4891817;29;20083;-76
2022/01/17 02:16:11;;;;;;;5.10;1.30;;;;;;;-4.04;67.05;97976.59;4882551;29;20040;-75
2022/01/17 02:18:40;;;;;;;2.78;1.10;;;;;;;-4.05;67.32;97957.09;4892206;29;20052;-78
2022/01/17 02:23:35;;;;;;;1.88;0.93;;;;;;;-3.94;67.18;97935.31;4893960;29;20052;-77
2022/01/17 02:26:01;;;;;;;5.13;1.45;;;;;;;-3.89;66.86;97937.09;4908895;29;20052;-77
2022/01/17 02:28:28;;;;;;;3.22;1.33;;;;;;;-3.82;66.83;97943.97;4894603;29;20056;-80
2022/01/17 02:30:53;;;;;;;2.88;1.00;;;;;;;-3.80;66.92;97927.06;4892309;29;20051;-76
2022/01/17 02:33:20;;;;;;;1.73;1.10;;;;;;;-3.68;66.41;97936.63;4913109;29;20056;-77
2022/01/17 02:35:49;;;;;;;2.47;1.00;;;;;;;-3.69;66.67;97922.19;4912958;29;20390;-78
2022/01/17 02:38:15;;;;;;;2.03;0.90;;;;;;;-3.57;66.26;97909.72;4905872;29;20061;-78
2022/01/17 02:40:41;;;;;;;3.45;1.33;;;;;;;-3.62;66.56;97883.34;4927212;28;20044;-78
2022/01/17 02:43:08;;;;;;;2.47;1.00;;;;;;;-3.47;66.54;97885.28;4902350;29;20040;-76
2022/01/17 02:48:05;;;;;;;3.45;1.58;;;;;;;-3.44;66.14;97867.53;4894130;29;20116;-76
2022/01/17 02:50:31;;;;;;;3.20;0.98;;;;;;;-3.56;66.12;97852.06;4909889;29;20045;-77
2022/01/17 02:53:02;;;;;;;2.65;1.30;;;;;;;-3.45;66.06;97857.31;4895149;29;20596;-79
2022/01/17 02:55:29;;;;;;;2.15;1.00;;;;;;;-3.60;65.78;97825.72;4895505;29;20056;-81
2022/01/17 02:57:55;;;;;;;2.45;1.08;;;;;;;-3.49;65.63;97853.88;4894486;29;20048;-77
2022/01/17 03:00:21;;;;;;;3.85;1.17;;;;;;;-3.48;65.72;97863.22;4909193;29;20056;-79
2022/01/17 03:02:49;;;;;;;4.20;1.02;;;;;;;-3.78;65.58;97800.84;4893747;29;20531;-77
2022/01/17 03:05:16;;;;;;;3.22;1.08;;;;;;;-3.54;65.60;97846.19;4894433;29;20048;-81
2022/01/17 03:07:43;;;;;;;4.35;1.10;;;;;;;-3.85;65.21;97815.16;4894595;29;20132;-78
2022/01/17 03:10:18;;;;;;;4.03;1.15;;;;;;;-3.82;65.43;97816.88;4906496;29;20093;-79
2022/01/17 03:12:44;;;;;;;3.35;1.15;;;;;;;-3.75;65.28;97830.59;4902246;29;21142;-77
2022/01/17 03:15:10;;;;;;;5.47;1.35;;;;;;;-3.79;65.50;97827.09;4911104;29;20067;-78
2022/01/17 03:17:35;;;;;;;2.42;1.40;;;;;;;-3.81;65.46;97806.75;4913361;29;20505;-79
2022/01/17 03:20:01;;;;;;;3.28;1.38;;;;;;;-3.74;65.62;97797.53;4898224;29;20198;-80
2022/01/17 03:22:27;;;;;;;2.90;1.02;;;;;;;-3.68;65.37;97812.91;4894353;29;20048;-79
2022/01/17 03:24:53;;;;;;;3.03;1.10;;;;;;;-3.62;65.31;97812.13;4924895;29;20087;-78
2022/01/17 03:27:18;;;;;;;4.28;1.10;;;;;;;-3.75;65.01;97784.81;4897171;29;20045;-78
2022/01/17 03:29:45;;;;;;;2.88;0.95;;;;;;;-3.63;65.46;97800.25;4895456;29;20044;-80
2022/01/17 03:32:11;;;;;;;1.95;0.90;;;;;;;-3.66;64.50;97792.56;4906763;29;20092;-77
2022/01/17 03:34:39;;;;;;;1.73;1.00;;;;;;;-3.56;65.10;97803.75;4885125;29;20049;-77
2022/01/17 03:37:05;;;;;;;1.88;1.05;;;;;;;-3.47;65.02;97801.34;4902020;29;20048;-78
2022/01/17 03:39:31;;;;;;;3.28;1.08;;;;;;;-3.57;65.07;97780.00;4927510;29;20063;-79
2022/01/17 03:41:57;;;;;;;1.98;0.88;;;;;;;-3.49;64.58;97793.69;4908214;29;20048;-78
2022/01/17 03:44:23;;;;;;;1.98;0.95;;;;;;;-3.48;64.67;97779.28;4913353;29;20124;-76
2022/01/17 03:46:49;;;;;;;1.33;0.80;;;;;;;-3.46;64.79;97779.31;4904770;29;20036;-79
2022/01/17 03:49:15;;;;;;;6.45;1.20;;;;;;;-3.62;64.59;97748.56;4909238;29;20056;-78
2022/01/17 03:51:41;;;;;;;3.33;1.20;;;;;;;-3.45;64.42;97775.94;4911776;29;20112;-77
2022/01/17 03:54:07;;;;;;;2.97;1.40;;;;;;;-3.51;64.76;97748.72;4933983;29;20163;-78
2022/01/17 03:56:33;;;;;;;2.22;1.10;;;;;;;-3.35;64.81;97760.81;4907367;29;20055;-79
2022/01/17 03:58:59;;;;;;;3.60;1.20;;;;;;;-3.48;64.51;97733.53;4913736;29;20068;-77
2022/01/17 04:01:24;;;;;;;4.88;1.35;;;;;;;-3.26;64.65;97741.44;4908289;29;20057;-75
2022/01/17 04:03:50;;;;;;;2.90;0.95;;;;;;;-3.13;64.35;97756.03;4902447;29;20044;-78
2022/01/17 04:06:17;;;;;;;4.60;1.20;;;;;;;-3.07;64.44;97739.97;4912916;29;20073;-77
2022/01/17 04:08:43;;;;;;;4.30;1.40;;;;;;;-3.12;64.29;97722.09;4909675;29;20572;-77
2022/01/17 04:11:09;;;;;;;3.92;1.55;;;;;;;-2.91;64.24;97741.03;4926758;29;20041;-79
2022/01/17 04:13:35;;;;;;;1.83;0.98;;;;;;;-2.85;63.87;97730.91;4912509;29;20040;-78
2022/01/17 04:16:02;;;;;;;3.35;1.33;;;;;;;-2.96;64.08;97707.88;4924426;29;20040;-77
2022/01/17 04:18:29;;;;;;;2.80;1.10;;;;;;;-2.77;63.62;97725.91;4908660;29;20044;-77
2022/01/17 04:20:56;;;;;;;3.20;1.40;;;;;;;-2.82;63.77;97710.59;4916519;29;20043;-76
2022/01/17 04:23:22;;;;;;;5.60;1.20;;;;;;;-2.80;63.35;97700.41;4915724;29;20056;-76
2022/01/17 04:25:49;;;;;;;3.50;1.13;;;;;;;-2.70;63.74;97702.22;4936988;29;20048;-76
2022/01/17 04:28:15;;;;;;;2.38;1.20;;;;;;;-2.70;63.35;97686.09;4908876;29;20073;-76
2022/01/17 04:30:43;;;;;;;3.50;1.25;;;;;;;-2.70;63.20;97678.44;4925405;29;20056;-78
2022/01/17 04:33:09;;;;;;;3.38;1.60;;;;;;;-2.60;62.80;97682.81;4907835;29;20126;-75
2022/01/17 04:35:35;;;;;;;4.32;1.20;;;;;;;-2.64;62.91;97666.63;4913781;29;20036;-76
2022/01/17 04:38:06;;;;;;;2.28;1.00;;;;;;;-2.89;62.75;97622.25;4902026;29;20044;-76
2022/01/17 04:40:36;;;;;;;2.97;1.10;;;;;;;-2.63;62.81;97665.78;4894902;29;20058;-79
2022/01/17 04:43:17;;;;;;;2.78;1.20;;;;;;;-2.68;62.81;97649.63;4895890;29;20040;-78
2022/01/17 04:45:48;;;;;;;3.42;1.25;;;;;;;-2.54;62.83;97651.44;4923020;29;20557;-79
2022/01/17 04:48:16;;;;;;;2.03;1.20;;;;;;;-2.69;62.60;97614.81;4902373;29;20124;-79
2022/01/17 04:50:42;;;;;;;3.38;1.20;;;;;;;-2.68;62.27;97631.81;4894585;29;20041;-75
2022/01/17 04:53:09;;;;;;;5.43;1.92;;;;;;;-2.52;62.57;97631.94;4907663;29;20052;-75
2022/01/17 04:55:36;;;;;;;4.18;1.13;;;;;;;-2.61;62.22;97607.25;4902851;29;20044;-75
2022/01/17 04:58:03;;;;;;;3.83;1.48;;;;;;;-2.58;62.13;97615.75;4893969;29;20108;-78
2022/01/17 05:00:28;;;;;;;3.13;1.20;;;;;;;-2.54;62.15;97601.38;4894808;29;20478;-77
2022/01/17 05:02:55;;;;;;;4.25;1.42;;;;;;;-2.36;62.18;97625.28;4893035;29;20060;-76
2022/01/17 05:05:21;;;;;;;2.88;1.20;;;;;;;-2.37;61.72;97609.13;4893026;29;20055;-79
2022/01/17 05:07:47;;;;;;;2.85;1.10;;;;;;;-2.52;61.76;97571.66;4888269;29;20453;-78
2022/01/17 05:10:15;;;;;;;4.07;1.20;;;;;;;-2.34;61.55;97593.03;4893628;29;20096;-75
2022/01/17 05:12:42;;;;;;;6.00;1.40;;;;;;;-2.35;61.29;97584.50;4878076;29;20075;-77
2022/01/17 05:15:18;;;;;;;2.45;1.27;;;;;;;-2.48;61.50;97563.19;4891369;29;20080;-79
2022/01/17 05:17:56;;;;;;;4.07;1.48;;;;;;;-2.56;61.12;97569.94;4860788;29;20190;-77
2022/01/17 05:20:22;;;;;;;4.82;1.52;;;;;;;-2.49;61.67;97579.31;4891277;29;20040;-76
2022/01/17 05:22:48;;;;;;;3.08;1.42;;;;;;;-2.49;61.62;97575.94;4894093;29;21046;-75
2022/01/17 05:25:17;;;;;;;3.42;1.38;;;;;;;-2.49;61.77;97563.19;4884426;29;20048;-76
2022/01/17 05:27:43;;;;;;;3.42;1.52;;;;;;;-2.46;61.47;97583.59;4903379;29;20048;-76
2022/01/17 05:30:14;;;;;;;5.43;1.73;;;;;;;-2.50;61.86;97571.69;4891074;29;20040;-78
2022/01/17 05:32:40;;;;;;;3.15;1.65;;;;;;;-2.56;61.84;97567.41;4892635;29;20044;-78
2022/01/17 05:35:07;;;;;;;4.38;1.40;;;;;;;-2.55;61.97;97561.47;4893359;29;20036;-76
2022/01/17 05:37:34;;;;;;;8.00;1.75;;;;;;;-2.62;61.77;97560.53;4874669;29;20040;-77
2022/01/17 05:40:00;;;;;;;4.50;1.65;;;;;;;-2.63;62.62;97535.91;4891103;29;20040;-78
2022/01/17 05:42:26;;;;;;;4.65;1.85;;;;;;;-2.58;62.47;97530.88;4861245;29;20044;-77
2022/01/17 05:44:53;;;;;;;6.15;1.70;;;;;;;-2.62;62.22;97541.88;4883164;29;20457;-78
2022/01/17 05:47:20;;;;;;;4.35;1.52;;;;;;;-2.61;62.50;97546.13;4895153;29;20044;-76
2022/01/17 05:49:46;;;;;;;3.30;1.40;;;;;;;-2.70;62.74;97546.91;4884345;29;20493;-78
2022/01/17 05:52:12;;;;;;;3.53;1.48;;;;;;;-2.80;62.98;97527.28;4881400;29;20040;-75
2022/01/17 05:54:39;;;;;;;4.38;1.60;;;;;;;-2.70;62.60;97536.72;4897322;29;20572;-77
2022/01/17 05:57:07;;;;;;;3.63;1.90;;;;;;;-2.83;63.22;97515.41;4903844;29;20040;-77
2022/01/17 05:59:33;;;;;;;6.28;1.85;;;;;;;-3.05;63.47;97454.16;4908023;29;20044;-75
2022/01/17 06:01:58;;;;;;;4.43;2.05;;;;;;;-2.72;63.05;97513.78;4904326;29;20572;-76
2022/01/17 06:04:25;;;;;;;5.15;1.88;;;;;;;-2.74;63.53;97494.25;4889538;29;20112;-78
2022/01/17 06:06:50;;;;;;;6.57;2.92;;;;;;;-2.73;63.55;97476.41;4884441;29;20127;-77
2022/01/17 06:09:16;;;;;;;5.05;2.00;;;;;;;-2.75;63.48;97460.28;4865666;29;20045;-78
2022/01/17 06:11:43;;;;;;;7.15;1.73;;;;;;;-3.04;63.46;97410.03;4879758;29;20128;-79
2022/01/17 06:14:15;;;;;;;4.80;2.00;;;;;;;-2.77;63.78;97431.44;4836998;29;20048;-78
2022/01/17 06:16:41;;;;;;;7.22;2.00;;;;;;;-2.77;63.66;97428.03;4876906;29;20069;-76
2022/01/17 06:19:11;;;;;;;5.32;2.00;;;;;;;-2.70;63.89;97459.47;4888025;29;20128;-76
2022/01/17 06:21:37;;;;;;;4.72;1.73;;;;;;;-2.79;63.76;97508.63;4878469;29;20045;-75
2022/01/17 06:24:06;;;;;;;4.32;2.05;;;;;;;-2.82;63.80;97508.59;4876106;29;20104;-79
2022/01/17 06:26:36;;;;;;;7.93;2.80;;;;;;;-2.88;63.86;97552.69;4877447;29;20417;-76
2022/01/17 06:29:07;;;;;;;4.00;1.88;;;;;;;-2.78;64.08;97607.09;4890620;29;21002;-77
2022/01/17 06:31:34;;;;;;;4.55;1.92;;;;;;;-3.00;64.00;97571.25;4891971;29;20080;-76
2022/01/17 06:34:03;;;;;;;6.00;2.00;;;;;;;-2.63;64.42;97609.75;4852513;29;20053;-77
2022/01/17 06:36:29;;;;;;;3.95;1.75;;;;;;;-2.66;64.26;97593.59;4861110;29;20167;-77
2022/01/17 06:38:55;;;;;;;5.40;2.03;;;;;;;-2.65;64.60;97555.44;4876822;29;20083;-77
2022/01/17 06:41:21;;;;;;;6.55;2.10;;;;;;;-2.74;64.39;97501.88;4875847;29;20481;-77
2022/01/17 06:43:47;;;;;;;6.68;2.28;;;;;;;-2.73;64.21;97493.41;4877767;29;20045;-77
2022/01/17 06:46:14;;;;;;;9.23;2.40;;;;;;;-2.91;64.65;97435.56;4877254;29;20053;-79
2022/01/17 06:48:42;;;;;;;5.47;2.20;;;;;;;-2.79;64.26;97428.03;4874819;29;20045;-79
2022/01/17 06:51:09;;;;;;;4.78;2.33;;;;;;;-2.93;64.33;97420.31;4862558;29;20140;-76
2022/01/17 06:53:36;;;;;;;4.95;1.90;;;;;;;-2.92;65.08;97406.72;4877172;29;20041;-78
2022/01/17 06:56:01;;;;;;;7.43;2.63;;;;;;;-2.99;64.58;97389.72;4877881;29;20452;-76
2022/01/17 06:58:27;;;;;;;7.72;2.67;;;;;;;-2.82;64.49;97427.13;4860408;29;20076;-79
2022/01/17 07:00:54;;;;;;;5.70;1.90;;;;;;;-2.78;64.86;97424.66;4879088;29;20072;-78
2022/01/17 07:03:21;;;;;;;5.65;2.05;;;;;;;-2.80;64.98;97407.63;4899528;29;20092;-79
2022/01/17 07:05:47;;;;;;;6.13;2.33;;;;;;;-2.75;65.28;97409.38;4900958;29;20084;-80
2022/01/17 07:08:13;;;;;;;4.32;2.08;;;;;;;-2.82;64.99;97405.09;4906345;29;20214;-78
2022/01/17 07:10:39;;;;;;;4.47;2.17;;;;;;;-2.73;65.07;97435.69;4876800;29;20158;-78
2022/01/17 07:13:09;;;;;;;7.03;2.03;;;;;;;-2.60;65.29;97431.53;4876694;29;20960;-78
2022/01/17 07:15:35;;;;;;;5.35;1.98;;;;;;;-2.53;65.32;97442.59;4874119;29;20044;-77
2022/01/17 07:18:00;;;;;;;5.65;2.03;;;;;;;-2.49;65.24;97418.84;4902331;29;20048;-78
2022/01/17 07:20:27;;;;;;;5.47;1.85;;;;;;;-2.69;65.46;97366.97;4887418;29;20056;-78
2022/01/17 07:22:53;;;;;;;5.53;2.20;;;;;;;-2.34;65.25;97414.69;4903554;29;20048;-78
2022/01/17 07:25:22;;;;;;;4.90;1.95;;;;;;;-2.29;65.46;97420.63;4911355;29;20040;-79
2022/01/17 07:27:51;;;;;;;6.97;2.55;;;;;;;-2.98;65.46;97294.69;4913619;29;20065;-76
2022/01/17 07:30:18;;;;;;;5.57;2.50;;;;;;;-2.88;65.10;97285.41;4914791;29;20048;-78
2022/01/17 07:32:44;;;;;;;5.25;2.30;;;;;;;-2.39;65.52;97367.97;4889186;29;20058;-78
2022/01/17 07:35:10;;;;;;;6.30;2.53;;;;;;;-2.30;65.47;97378.16;4897646;29;20041;-76
2022/01/17 07:37:36;;;;;;;4.60;2.13;;;;;;;-2.27;65.64;97362.88;4885555;29;20047;-77
2022/01/17 07:40:08;;;;;;;6.40;2.20;;;;;;;-2.37;65.21;97354.38;4900686;29;20048;-77
2022/01/17 07:42:34;;;;;;;4.32;1.95;;;;;;;-2.33;65.17;97348.44;4915367;29;20060;-76
2022/01/17 07:45:09;;;;;;;8.30;2.33;;;;;;;-2.34;65.30;97315.34;4893130;29;20045;-78
2022/01/17 07:50:21;;;;;;;7.63;2.25;;;;;;;-2.17;65.15;97344.25;4897394;29;20071;-76
2022/01/17 07:52:48;;;;;;;16.20;2.83;;;;;;;-2.20;65.77;97323.84;4907434;29;20108;-77
2022/01/17 07:55:15;;;;;;;6.85;2.53;;;;;;;-2.06;65.63;97326.44;4893976;29;20037;-77
2022/01/17 07:57:41;;;;;;;3.97;2.13;;;;;;;-2.11;65.21;97310.28;4896734;29;20055;-76
2022/01/17 08:00:14;;;;;;;5.60;2.15;;;;;;;-2.05;65.60;97317.06;4897070;29;20064;-78
2022/01/17 08:02:46;;;;;;;6.40;2.58;;;;;;;-2.16;65.08;97304.31;4895668;29;20103;-78
2022/01/17 08:05:14;;;;;;;6.07;2.42;;;;;;;-2.20;64.98;97302.59;4896629;29;20040;-77
2022/01/17 08:07:44;;;;;;;6.00;2.17;;;;;;;-2.25;65.03;97299.22;4923370;29;20045;-78
2022/01/17 08:10:20;;;;;;;3.95;2.28;;;;;;;-2.16;65.69;97307.72;4910660;29;20044;-81
2022/01/17 08:14:06;;;;;;;;;;;;;;;;;;;;;
2022/01/17 08:16:36;;;;;;;6.25;2.53;;;;;;;-2.34;65.69;97266.94;4880753;29;20096;-77
2022/01/17 08:19:02;;;;;;;5.50;2.58;;;;;;;-1.92;65.35;97316.25;4877267;29;20040;-77
2022/01/17 08:21:28;;;;;;;5.90;2.70;;;;;;;-2.12;65.29;97275.44;4907663;29;20049;-77
2022/01/17 08:23:54;;;;;;;7.85;3.15;;;;;;;-2.03;65.27;97295.00;4893506;29;20457;-78
2022/01/17 08:26:20;;;;;;;5.18;2.45;;;;;;;-1.89;65.57;97311.19;4913583;29;20048;-76
2022/01/17 08:28:46;;;;;;;5.53;2.28;;;;;;;-1.96;65.28;97271.22;4885341;29;20052;-77
2022/01/17 08:31:12;;;;;;;6.57;2.63;;;;;;;-1.83;65.80;97298.41;4911172;29;20048;-78
2022/01/17 08:33:42;;;;;;;7.82;3.28;;;;;;;-1.78;65.33;97295.00;4899105;29;20120;-77
2022/01/17 08:36:11;;;;;;;5.80;2.63;;;;;;;-1.89;65.34;97260.19;4895756;29;20041;-76
2022/01/17 08:38:40;;;;;;;5.40;2.65;;;;;;;-1.93;65.66;97267.81;4893886;29;20076;-78
2022/01/17 08:41:06;;;;;;;5.65;2.20;;;;;;;-1.78;65.09;97279.72;4892414;29;21083;-78
2022/01/17 08:43:32;;;;;;;9.00;2.80;;;;;;;-1.90;65.46;97255.06;4879131;29;20044;-77
2022/01/17 08:46:00;;;;;;;8.50;3.10;;;;;;;-1.54;65.49;97282.25;4893744;29;20139;-79
2022/01/17 08:48:25;;;;;;;9.05;2.90;;;;;;;-1.50;65.40;97269.50;4895479;29;20493;-78
2022/01/17 08:50:51;;;;;;;5.53;2.60;;;;;;;-1.64;65.50;97242.28;4908883;29;20095;-78
2022/01/17 08:53:18;;;;;;;8.95;3.53;;;;;;;-1.54;65.21;97261.00;4920521;29;20068;-80
2022/01/17 08:55:45;;;;;;;5.60;2.30;;;;;;;-1.51;65.34;97273.75;4876983;29;20044;-77
2022/01/17 08:58:13;;;;;;;7.28;2.80;;;;;;;-1.55;65.22;97267.81;4915291;29;20602;-77
2022/01/17 09:00:40;;;;;;;4.95;2.67;;;;;;;-1.62;64.90;97273.75;4894752;29;20638;-80
2022/01/17 09:03:22;;;;;;;7.10;3.03;;;;;;;-2.15;65.05;97181.16;4864468;29;20043;-77
2022/01/17 09:05:52;;;;;;;5.78;2.63;;;;;;;-1.60;65.29;97264.41;4883959;29;20041;-78
2022/01/17 09:08:18;;;;;;;8.07;3.17;;;;;;;-1.64;65.48;97256.75;4894349;29;20041;-78
2022/01/17 09:10:45;;;;;;;9.75;3.58;;;;;;;-1.93;65.48;97225.34;4895680;29;20052;-79
2022/01/17 09:13:11;;;;;;;6.78;2.75;;;;;;;-1.80;65.66;97235.50;4892674;29;20048;-77
2022/01/17 09:15:51;;;;;;;8.23;3.17;;;;;;;-1.64;65.36;97267.81;4876180;29;20036;-80
2022/01/17 09:18:25;;;;;;;6.00;2.97;;;;;;;-1.62;65.26;97265.28;4891874;29;20078;-77
2022/01/17 09:20:52;;;;;;;5.22;2.90;;;;;;;-1.69;65.22;97254.22;4900955;29;20072;-76
2022/01/17 09:23:18;;;;;;;7.75;3.03;;;;;;;-1.70;65.18;97247.44;4897202;29;20077;-77
2022/01/17 09:25:44;;;;;;;7.20;3.42;;;;;;;-1.67;65.40;97244.88;4903627;29;20125;-77
2022/01/17 09:28:17;;;;;;;7.68;3.42;;;;;;;-1.93;65.16;97183.69;4896457;29;20047;-76
2022/01/17 09:30:43;;;;;;;10.27;3.58;;;;;;;-1.84;65.24;97204.91;4891765;29;20068;-77
2022/01/17 09:33:20;;;;;;;7.93;3.45;;;;;;;-1.88;64.86;97182.84;4890528;29;20044;-77
2022/01/17 09:35:49;;;;;;;11.40;5.25;;;;;;;-1.87;65.46;97179.44;4878622;29;21521;-77
2022/01/17 09:38:19;;;;;;;7.65;3.42;;;;;;;-1.62;64.88;97220.19;4907076;29;20039;-77
2022/01/17 09:40:45;;;;;;;12.52;3.80;;;;;;;-1.64;65.47;97215.97;4878767;29;20040;-75
2022/01/17 09:43:10;;;;;;;8.27;3.63;;;;;;;-2.10;64.70;97123.38;4894185;29;20040;-79
2022/01/17 09:45:37;;;;;;;7.00;3.50;;;;;;;-1.64;65.26;97190.47;4893694;29;20527;-78
2022/01/17 09:48:09;;;;;;;7.47;3.72;;;;;;;-1.89;64.88;97152.25;4884566;29;20064;-79
2022/01/17 09:54:07;;;;;;;9.05;3.80;;;;;;;-1.60;65.21;97182.78;4872877;29;21553;-77
2022/01/17 09:56:34;;;;;;;8.23;3.30;;;;;;;-1.62;65.73;97163.25;4895254;29;20044;-81
2022/01/17 09:59:08;;;;;;;12.73;3.97;;;;;;;-1.56;65.64;97181.09;4892009;29;20048;-78
2022/01/17 10:02:06;;;;;;;10.30;3.92;;;;;;;-2.09;65.39;97093.63;4881466;29;20488;-77
2022/01/17 10:04:50;;;;;;;9.20;3.90;;;;;;;-1.52;65.83;97180.22;4883078;29;20055;-79
2022/01/17 10:07:30;;;;;;;8.93;4.25;;;;;;;-2.21;65.97;97046.97;4890507;29;20293;-78
2022/01/17 10:09:59;;;;;;;7.95;4.65;;;;;;;-2.30;65.57;97054.59;4905490;29;20083;-78
2022/01/17 10:12:26;;;;;;;10.27;4.30;;;;;;;-1.56;65.91;97164.06;4892222;29;20037;-78
2022/01/17 10:14:59;;;;;;;8.82;4.63;;;;;;;-1.82;65.73;97102.94;4895128;29;20044;-78
2022/01/17 10:17:50;;;;;;;8.93;4.57;;;;;;;-1.45;65.96;97153.00;4910355;29;20083;-79
2022/01/17 10:20:18;;;;;;;12.57;5.10;;;;;;;-1.48;66.03;97130.06;4893502;29;20512;-76
2022/01/17 10:22:54;;;;;;;12.93;5.40;;;;;;;-1.35;65.53;97156.38;4877696;29;20036;-78
2022/01/17 10:25:41;;;;;;;10.85;4.80;;;;;;;-1.44;65.77;97131.75;4898339;29;20043;-75
2022/01/17 10:31:17;;;;;;;12.50;5.25;;;;;;;-1.25;65.43;97158.88;4897253;29;20044;-77
2022/01/17 10:36:56;;;;;;;13.45;5.28;;;;;;;-1.43;66.17;97118.97;4843381;29;20056;-79
2022/01/17 10:39:37;;;;;;;14.40;5.45;;;;;;;-1.29;66.62;97126.56;4893144;29;20497;-76
2022/01/17 10:42:26;;;;;;;11.60;4.75;;;;;;;-1.19;65.97;97137.59;4893352;29;20052;-78
2022/01/17 10:44:52;;;;;;;8.38;4.68;;;;;;;-1.15;66.38;97138.41;4893639;29;20049;-78
2022/01/17 10:47:28;;;;;;;9.07;4.60;;;;;;;-1.28;65.86;97110.41;4895435;29;20492;-76
2022/01/17 10:49:59;;;;;;;9.43;5.05;;;;;;;-1.41;66.64;97086.66;4916287;29;20500;-78
2022/01/17 10:52:49;;;;;;;10.98;5.25;;;;;;;-1.26;66.61;97082.31;4876665;29;20183;-78
2022/01/17 10:55:28;;;;;;;9.73;4.70;;;;;;;-1.22;66.47;97084.00;4902890;29;20108;-78
2022/01/17 10:58:02;;;;;;;11.18;5.05;;;;;;;-1.10;66.50;97106.06;4908154;29;20127;-79
2022/01/17 11:00:33;;;;;;;10.32;4.80;;;;;;;-1.03;66.62;97112.84;4902649;29;20093;-79
2022/01/17 11:03:06;;;;;;;10.50;4.65;;;;;;;-1.14;66.43;97089.06;4911447;29;20048;-78
2022/01/17 11:05:33;;;;;;;9.48;5.00;;;;;;;-1.16;66.49;97086.53;4924717;29;20085;-78
2022/01/17 11:08:02;;;;;;;12.10;4.90;;;;;;;-1.00;66.49;97109.41;4902246;29;20521;-79
2022/01/17 11:10:32;;;;;;;13.07;5.15;;;;;;;-0.99;66.94;97106.84;4894605;29;20250;-76
2022/01/17 11:13:02;;;;;;;10.70;5.43;;;;;;;-0.94;66.24;97109.38;4895629;29;20092;-77
2022/01/17 11:15:32;;;;;;;9.43;5.22;;;;;;;-0.97;66.36;97104.28;4895223;29;20037;-78
2022/01/17 11:18:17;;;;;;;11.07;5.13;;;;;;;-0.98;66.84;97090.66;4891810;29;20076;-78
2022/01/17 11:21:00;;;;;;;12.60;5.22;;;;;;;-0.98;66.81;97080.44;4878883;29;20182;-78
2022/01/17 11:23:29;;;;;;;9.95;4.90;;;;;;;-1.08;66.66;97068.63;4898777;29;20079;-78
2022/01/17 11:25:58;;;;;;;9.27;5.07;;;;;;;-1.01;67.41;97075.38;4861767;29;20056;-76
2022/01/17 11:28:28;;;;;;;12.20;5.07;;;;;;;-1.09;66.31;97077.97;4896708;29;20052;-79
2022/01/17 11:30:59;;;;;;;11.18;5.10;;;;;;;-1.25;66.46;97041.50;4879289;29;20088;-78
2022/01/17 11:33:34;;;;;;;12.40;5.50;;;;;;;-1.29;67.15;97021.09;4876771;29;20047;-80
2022/01/17 11:36:04;;;;;;;10.82;5.22;;;;;;;-0.92;67.26;97070.22;4894395;29;20036;-77
2022/01/17 11:38:36;;;;;;;12.02;5.20;;;;;;;-1.01;67.29;97037.09;4893015;29;20107;-78
2022/01/17 11:41:04;;;;;;;10.20;5.00;;;;;;;-0.86;66.83;97060.81;4894282;29;20471;-78
2022/01/17 11:43:37;;;;;;;11.05;5.93;;;;;;;-1.10;66.66;97019.28;4893694;29;20044;-78
2022/01/17 11:46:18;;;;;;;12.63;5.93;;;;;;;-0.96;66.61;97055.75;4890434;29;20108;-76
2022/01/17 11:48:56;;;;;;;14.07;5.43;;;;;;;-1.10;66.71;97032.03;4907521;29;20048;-78
2022/01/17 11:51:36;;;;;;;9.95;5.18;;;;;;;-1.04;67.74;97034.56;4891319;29;20059;-76
2022/01/17 11:54:16;;;;;;;15.60;6.75;;;;;;;-1.50;67.12;96976.16;4891659;29;20074;-76
2022/01/17 11:56:45;;;;;;;11.15;5.43;;;;;;;-1.11;67.21;97043.09;4880353;29;20052;-78
2022/01/17 11:59:38;;;;;;;13.95;6.32;;;;;;;-1.09;67.52;97038.84;4888672;29;20096;-80
2022/01/17 12:02:40;;;;;;;13.95;6.28;;;;;;;-1.09;67.54;97026.91;4900199;29;20056;-76
2022/01/17 12:05:11;;;;;;;13.48;6.03;;;;;;;-1.10;67.58;97034.59;4905849;29;20052;-77
2022/01/17 12:07:53;;;;;;;14.45;7.47;;;;;;;-1.15;67.68;97034.63;4910071;29;20121;-79
2022/01/17 12:10:34;;;;;;;12.10;5.93;;;;;;;-1.12;67.92;97024.41;4879777;29;20049;-77
2022/01/17 12:13:24;;;;;;;12.77;6.00;;;;;;;-1.07;67.58;97032.03;4895608;29;20049;-79